sensor_id;sensor_type;location;lat;lon;timestamp;temperature;humidity
59975;DHT22;62136;-35.664;-63.766;2023-05-16T00:01:05;24.20;49.30
59975;DHT22;62136;-35.664;-63.766;2023-05-16T00:03:33;24.10;49.30
59975;DHT22;62136;-35.664;-63.766;2023-05-16T00:06:00;24.10;49.20
59975;DHT22;62136;-35.664;-63.766;2023-05-16T00:08:29;24.10;49.20
59975;DHT22;62136;-35.664;-63.766;2023-05-16T00:10:56;24.10;49.10
59975;DHT22;62136;-35.664;-63.766;2023-05-16T00:13:23;24.20;49.30
59975;DHT22;62136;-35.664;-63.766;2023-05-16T00:15:51;24.20;49.30
59975;DHT22;62136;-35.664;-63.766;2023-05-16T00:18:19;24.20;49.40
59975;DHT22;62136;-35.664;-63.766;2023-05-16T00:20:48;24.20;49.60
59975;DHT22;62136;-35.664;-63.766;2023-05-16T00:23:15;24.20;49.80
59975;DHT22;62136;-35.664;-63.766;2023-05-16T00:25:43;24.20;50.00
59975;DHT22;62136;-35.664;-63.766;2023-05-16T00:28:10;24.20;50.10
59975;DHT22;62136;-35.664;-63.766;2023-05-16T00:30:37;24.20;50.40
59975;DHT22;62136;-35.664;-63.766;2023-05-16T00:33:04;24.20;50.30
59975;DHT22;62136;-35.664;-63.766;2023-05-16T00:35:31;24.20;50.50
59975;DHT22;62136;-35.664;-63.766;2023-05-16T00:37:58;24.20;50.70
59975;DHT22;62136;-35.664;-63.766;2023-05-16T00:40:25;24.20;50.80
59975;DHT22;62136;-35.664;-63.766;2023-05-16T00:42:52;24.10;50.90
59975;DHT22;62136;-35.664;-63.766;2023-05-16T00:45:19;24.20;50.80
59975;DHT22;62136;-35.664;-63.766;2023-05-16T00:47:50;24.10;50.80
59975;DHT22;62136;-35.664;-63.766;2023-05-16T00:50:29;24.10;50.10
59975;DHT22;62136;-35.664;-63.766;2023-05-16T00:52:56;24.10;50.20
59975;DHT22;62136;-35.664;-63.766;2023-05-16T00:55:24;24.10;50.10
59975;DHT22;62136;-35.664;-63.766;2023-05-16T00:57:52;24.10;50.10
59975;DHT22;62136;-35.664;-63.766;2023-05-16T01:00:19;24.10;50.00
59975;DHT22;62136;-35.664;-63.766;2023-05-16T01:02:46;24.10;50.60
59975;DHT22;62136;-35.664;-63.766;2023-05-16T01:05:13;24.00;50.60
59975;DHT22;62136;-35.664;-63.766;2023-05-16T01:07:40;24.00;50.70
59975;DHT22;62136;-35.664;-63.766;2023-05-16T01:10:08;24.00;49.20
59975;DHT22;62136;-35.664;-63.766;2023-05-16T01:15:29;23.90;49.50
59975;DHT22;62136;-35.664;-63.766;2023-05-16T01:18:07;23.90;49.60
59975;DHT22;62136;-35.664;-63.766;2023-05-16T01:20:50;23.80;49.70
59975;DHT22;62136;-35.664;-63.766;2023-05-16T01:28:34;23.70;50.60
59975;DHT22;62136;-35.664;-63.766;2023-05-16T01:31:04;23.70;50.70
59975;DHT22;62136;-35.664;-63.766;2023-05-16T01:33:31;23.70;50.70
59975;DHT22;62136;-35.664;-63.766;2023-05-16T01:36:02;23.70;50.80
59975;DHT22;62136;-35.664;-63.766;2023-05-16T01:41:27;23.60;50.70
59975;DHT22;62136;-35.664;-63.766;2023-05-16T01:43:59;23.60;50.70
59975;DHT22;62136;-35.664;-63.766;2023-05-16T01:46:32;23.60;51.20
59975;DHT22;62136;-35.664;-63.766;2023-05-16T01:54:33;23.50;50.80
59975;DHT22;62136;-35.664;-63.766;2023-05-16T01:57:04;23.50;50.90
59975;DHT22;62136;-35.664;-63.766;2023-05-16T01:59:33;23.50;50.90
59975;DHT22;62136;-35.664;-63.766;2023-05-16T02:02:01;23.40;50.90
59975;DHT22;62136;-35.664;-63.766;2023-05-16T02:04:28;23.40;50.90
59975;DHT22;62136;-35.664;-63.766;2023-05-16T02:06:56;23.40;50.90
59975;DHT22;62136;-35.664;-63.766;2023-05-16T02:09:25;23.30;50.90
59975;DHT22;62136;-35.664;-63.766;2023-05-16T02:11:52;23.30;51.00
59975;DHT22;62136;-35.664;-63.766;2023-05-16T02:14:19;23.30;50.90
59975;DHT22;62136;-35.664;-63.766;2023-05-16T02:16:47;23.30;51.00
59975;DHT22;62136;-35.664;-63.766;2023-05-16T02:19:14;23.30;50.90
59975;DHT22;62136;-35.664;-63.766;2023-05-16T02:21:41;23.30;51.00
59975;DHT22;62136;-35.664;-63.766;2023-05-16T02:24:08;23.20;51.00
59975;DHT22;62136;-35.664;-63.766;2023-05-16T02:26:35;23.20;50.90
59975;DHT22;62136;-35.664;-63.766;2023-05-16T02:29:02;23.20;50.90
59975;DHT22;62136;-35.664;-63.766;2023-05-16T02:31:31;23.20;50.90
59975;DHT22;62136;-35.664;-63.766;2023-05-16T02:33:58;23.20;50.90
59975;DHT22;62136;-35.664;-63.766;2023-05-16T02:36:26;23.20;51.00
59975;DHT22;62136;-35.664;-63.766;2023-05-16T02:38:53;23.20;51.00
59975;DHT22;62136;-35.664;-63.766;2023-05-16T02:41:20;23.20;51.10
59975;DHT22;62136;-35.664;-63.766;2023-05-16T02:43:48;23.30;50.60
59975;DHT22;62136;-35.664;-63.766;2023-05-16T02:46:28;23.60;49.60
59975;DHT22;62136;-35.664;-63.766;2023-05-16T02:48:58;24.20;48.50
59975;DHT22;62136;-35.664;-63.766;2023-05-16T02:51:27;24.60;47.40
59975;DHT22;62136;-35.664;-63.766;2023-05-16T02:53:55;24.70;47.20
59975;DHT22;62136;-35.664;-63.766;2023-05-16T02:56:28;24.70;47.10
59975;DHT22;62136;-35.664;-63.766;2023-05-16T02:58:55;24.60;47.40
59975;DHT22;62136;-35.664;-63.766;2023-05-16T03:01:22;24.50;47.30
59975;DHT22;62136;-35.664;-63.766;2023-05-16T03:03:49;24.50;47.50
59975;DHT22;62136;-35.664;-63.766;2023-05-16T03:06:16;24.40;47.60
59975;DHT22;62136;-35.664;-63.766;2023-05-16T03:08:43;24.30;47.90
59975;DHT22;62136;-35.664;-63.766;2023-05-16T03:11:10;24.20;48.00
59975;DHT22;62136;-35.664;-63.766;2023-05-16T03:13:37;24.10;48.30
59975;DHT22;62136;-35.664;-63.766;2023-05-16T03:16:05;24.00;48.50
59975;DHT22;62136;-35.664;-63.766;2023-05-16T03:18:32;23.90;48.60
59975;DHT22;62136;-35.664;-63.766;2023-05-16T03:20:59;23.80;48.80
59975;DHT22;62136;-35.664;-63.766;2023-05-16T03:23:28;23.70;49.00
59975;DHT22;62136;-35.664;-63.766;2023-05-16T03:25:55;23.60;49.00
59975;DHT22;62136;-35.664;-63.766;2023-05-16T03:28:22;23.50;49.20
59975;DHT22;62136;-35.664;-63.766;2023-05-16T03:30:49;23.50;49.40
59975;DHT22;62136;-35.664;-63.766;2023-05-16T03:33:16;23.40;49.40
59975;DHT22;62136;-35.664;-63.766;2023-05-16T03:35:44;23.40;49.50
59975;DHT22;62136;-35.664;-63.766;2023-05-16T03:38:11;23.30;49.50
59975;DHT22;62136;-35.664;-63.766;2023-05-16T03:40:39;23.30;49.60
59975;DHT22;62136;-35.664;-63.766;2023-05-16T03:43:06;23.20;49.70
59975;DHT22;62136;-35.664;-63.766;2023-05-16T03:45:33;23.10;49.60
59975;DHT22;62136;-35.664;-63.766;2023-05-16T03:48:01;23.10;49.60
59975;DHT22;62136;-35.664;-63.766;2023-05-16T03:50:31;23.10;49.60
59975;DHT22;62136;-35.664;-63.766;2023-05-16T03:52:58;23.00;49.60
59975;DHT22;62136;-35.664;-63.766;2023-05-16T03:55:25;23.00;49.60
59975;DHT22;62136;-35.664;-63.766;2023-05-16T03:57:52;23.20;48.90
59975;DHT22;62136;-35.664;-63.766;2023-05-16T04:00:19;23.60;48.10
59975;DHT22;62136;-35.664;-63.766;2023-05-16T04:02:46;24.10;47.10
59975;DHT22;62136;-35.664;-63.766;2023-05-16T04:05:13;24.40;46.50
59975;DHT22;62136;-35.664;-63.766;2023-05-16T04:07:41;24.50;46.20
59975;DHT22;62136;-35.664;-63.766;2023-05-16T04:10:09;24.50;46.20
59975;DHT22;62136;-35.664;-63.766;2023-05-16T04:12:36;24.40;46.30
59975;DHT22;62136;-35.664;-63.766;2023-05-16T04:15:04;24.30;46.40
59975;DHT22;62136;-35.664;-63.766;2023-05-16T04:17:35;24.30;46.50
59975;DHT22;62136;-35.664;-63.766;2023-05-16T04:20:02;24.20;46.60
59975;DHT22;62136;-35.664;-63.766;2023-05-16T04:22:30;24.10;47.00
59975;DHT22;62136;-35.664;-63.766;2023-05-16T04:24:57;24.00;47.00
59975;DHT22;62136;-35.664;-63.766;2023-05-16T04:27:24;23.90;47.40
59975;DHT22;62136;-35.664;-63.766;2023-05-16T04:29:52;23.80;47.40
59975;DHT22;62136;-35.664;-63.766;2023-05-16T04:32:19;23.70;47.50
59975;DHT22;62136;-35.664;-63.766;2023-05-16T04:34:46;23.60;47.70
59975;DHT22;62136;-35.664;-63.766;2023-05-16T04:37:15;23.60;47.80
59975;DHT22;62136;-35.664;-63.766;2023-05-16T04:39:42;23.50;47.80
59975;DHT22;62136;-35.664;-63.766;2023-05-16T04:42:09;23.40;48.00
59975;DHT22;62136;-35.664;-63.766;2023-05-16T04:44:36;23.30;48.20
59975;DHT22;62136;-35.664;-63.766;2023-05-16T04:47:03;23.20;48.20
59975;DHT22;62136;-35.664;-63.766;2023-05-16T04:49:31;23.20;48.40
59975;DHT22;62136;-35.664;-63.766;2023-05-16T04:51:58;23.20;48.50
59975;DHT22;62136;-35.664;-63.766;2023-05-16T04:54:25;23.10;48.60
59975;DHT22;62136;-35.664;-63.766;2023-05-16T04:56:52;23.00;48.60
59975;DHT22;62136;-35.664;-63.766;2023-05-16T04:59:19;23.00;48.60
59975;DHT22;62136;-35.664;-63.766;2023-05-16T05:01:47;23.10;48.20
59975;DHT22;62136;-35.664;-63.766;2023-05-16T05:04:14;23.40;47.60
59975;DHT22;62136;-35.664;-63.766;2023-05-16T05:06:43;23.80;46.70
59975;DHT22;62136;-35.664;-63.766;2023-05-16T05:09:10;24.30;45.70
59975;DHT22;62136;-35.664;-63.766;2023-05-16T05:11:37;24.40;45.50
59975;DHT22;62136;-35.664;-63.766;2023-05-16T05:14:04;24.40;45.40
59975;DHT22;62136;-35.664;-63.766;2023-05-16T05:16:31;24.30;45.40
59975;DHT22;62136;-35.664;-63.766;2023-05-16T05:18:58;24.30;45.60
59975;DHT22;62136;-35.664;-63.766;2023-05-16T05:21:25;24.10;45.70
59975;DHT22;62136;-35.664;-63.766;2023-05-16T05:23:52;24.10;45.90
59975;DHT22;62136;-35.664;-63.766;2023-05-16T05:26:19;23.90;46.10
59975;DHT22;62136;-35.664;-63.766;2023-05-16T05:28:48;23.80;46.30
59975;DHT22;62136;-35.664;-63.766;2023-05-16T05:31:15;23.70;46.30
59975;DHT22;62136;-35.664;-63.766;2023-05-16T05:33:42;23.60;46.60
59975;DHT22;62136;-35.664;-63.766;2023-05-16T05:36:09;23.50;47.00
59975;DHT22;62136;-35.664;-63.766;2023-05-16T05:38:36;23.50;47.30
59975;DHT22;62136;-35.664;-63.766;2023-05-16T05:41:04;23.40;47.10
59975;DHT22;62136;-35.664;-63.766;2023-05-16T05:43:32;23.30;47.80
59975;DHT22;62136;-35.664;-63.766;2023-05-16T05:46:00;23.20;47.50
59975;DHT22;62136;-35.664;-63.766;2023-05-16T05:48:27;23.20;47.90
59975;DHT22;62136;-35.664;-63.766;2023-05-16T05:50:55;23.10;47.60
59975;DHT22;62136;-35.664;-63.766;2023-05-16T05:53:22;23.00;47.70
59975;DHT22;62136;-35.664;-63.766;2023-05-16T05:55:49;23.00;47.90
59975;DHT22;62136;-35.664;-63.766;2023-05-16T05:58:16;22.90;47.90
59975;DHT22;62136;-35.664;-63.766;2023-05-16T06:00:44;23.00;47.60
59975;DHT22;62136;-35.664;-63.766;2023-05-16T06:03:11;23.20;47.10
59975;DHT22;62136;-35.664;-63.766;2023-05-16T06:05:38;23.60;46.30
59975;DHT22;62136;-35.664;-63.766;2023-05-16T06:08:05;24.20;45.30
59975;DHT22;62136;-35.664;-63.766;2023-05-16T06:10:33;24.30;45.10
59975;DHT22;62136;-35.664;-63.766;2023-05-16T06:13:00;24.30;45.00
59975;DHT22;62136;-35.664;-63.766;2023-05-16T06:15:27;24.20;45.10
59975;DHT22;62136;-35.664;-63.766;2023-05-16T06:17:54;24.10;45.20
59975;DHT22;62136;-35.664;-63.766;2023-05-16T06:20:21;24.00;45.40
59975;DHT22;62136;-35.664;-63.766;2023-05-16T06:22:48;23.90;45.80
59975;DHT22;62136;-35.664;-63.766;2023-05-16T06:25:15;23.70;45.70
59975;DHT22;62136;-35.664;-63.766;2023-05-16T06:27:42;23.60;45.90
59975;DHT22;62136;-35.664;-63.766;2023-05-16T06:30:10;23.50;46.10
59975;DHT22;62136;-35.664;-63.766;2023-05-16T06:32:37;23.40;46.40
59975;DHT22;62136;-35.664;-63.766;2023-05-16T06:35:06;23.30;46.60
59975;DHT22;62136;-35.664;-63.766;2023-05-16T06:37:34;23.30;47.00
59975;DHT22;62136;-35.664;-63.766;2023-05-16T06:40:01;23.10;46.90
59975;DHT22;62136;-35.664;-63.766;2023-05-16T06:42:29;23.10;47.30
59975;DHT22;62136;-35.664;-63.766;2023-05-16T06:44:56;23.00;47.20
59975;DHT22;62136;-35.664;-63.766;2023-05-16T06:47:23;22.90;47.30
59975;DHT22;62136;-35.664;-63.766;2023-05-16T06:49:50;22.90;47.50
59975;DHT22;62136;-35.664;-63.766;2023-05-16T06:52:17;22.80;47.70
59975;DHT22;62136;-35.664;-63.766;2023-05-16T06:54:44;22.80;47.50
59975;DHT22;62136;-35.664;-63.766;2023-05-16T06:57:11;23.00;47.10
59975;DHT22;62136;-35.664;-63.766;2023-05-16T06:59:39;23.40;46.40
59975;DHT22;62136;-35.664;-63.766;2023-05-16T07:02:06;24.00;45.40
59975;DHT22;62136;-35.664;-63.766;2023-05-16T07:04:33;24.10;44.90
59975;DHT22;62136;-35.664;-63.766;2023-05-16T07:07:03;24.10;44.90
59975;DHT22;62136;-35.664;-63.766;2023-05-16T07:09:33;24.00;44.90
59975;DHT22;62136;-35.664;-63.766;2023-05-16T07:12:00;23.90;45.20
59975;DHT22;62136;-35.664;-63.766;2023-05-16T07:14:27;23.80;45.40
59975;DHT22;62136;-35.664;-63.766;2023-05-16T07:16:54;23.70;45.50
59975;DHT22;62136;-35.664;-63.766;2023-05-16T07:19:21;23.60;45.70
59975;DHT22;62136;-35.664;-63.766;2023-05-16T07:21:48;23.50;46.30
59975;DHT22;62136;-35.664;-63.766;2023-05-16T07:24:15;23.40;46.10
59975;DHT22;62136;-35.664;-63.766;2023-05-16T07:26:43;23.30;46.50
59975;DHT22;62136;-35.664;-63.766;2023-05-16T07:29:10;23.10;46.60
59975;DHT22;62136;-35.664;-63.766;2023-05-16T07:31:37;23.10;46.50
59975;DHT22;62136;-35.664;-63.766;2023-05-16T07:34:04;23.00;46.90
59975;DHT22;62136;-35.664;-63.766;2023-05-16T07:36:33;22.90;47.20
59975;DHT22;62136;-35.664;-63.766;2023-05-16T07:39:00;22.80;47.30
59975;DHT22;62136;-35.664;-63.766;2023-05-16T07:41:28;22.70;47.40
59975;DHT22;62136;-35.664;-63.766;2023-05-16T07:43:55;22.70;47.60
59975;DHT22;62136;-35.664;-63.766;2023-05-16T07:46:22;22.60;47.70
59975;DHT22;62136;-35.664;-63.766;2023-05-16T07:48:49;22.70;47.60
59975;DHT22;62136;-35.664;-63.766;2023-05-16T07:51:16;23.00;47.20
59975;DHT22;62136;-35.664;-63.766;2023-05-16T07:53:43;23.50;46.50
59975;DHT22;62136;-35.664;-63.766;2023-05-16T07:56:10;24.00;45.50
59975;DHT22;62136;-35.664;-63.766;2023-05-16T07:58:38;24.00;45.30
59975;DHT22;62136;-35.664;-63.766;2023-05-16T08:01:05;24.00;45.10
59975;DHT22;62136;-35.664;-63.766;2023-05-16T08:03:32;23.90;45.20
59975;DHT22;62136;-35.664;-63.766;2023-05-16T08:06:00;23.80;45.40
59975;DHT22;62136;-35.664;-63.766;2023-05-16T08:08:28;23.70;45.60
59975;DHT22;62136;-35.664;-63.766;2023-05-16T08:10:55;23.60;45.80
59975;DHT22;62136;-35.664;-63.766;2023-05-16T08:13:22;23.50;46.00
59975;DHT22;62136;-35.664;-63.766;2023-05-16T08:15:49;23.30;46.40
59975;DHT22;62136;-35.664;-63.766;2023-05-16T08:18:16;23.20;46.50
59975;DHT22;62136;-35.664;-63.766;2023-05-16T08:20:43;23.10;46.70
59975;DHT22;62136;-35.664;-63.766;2023-05-16T08:23:10;23.00;47.00
59975;DHT22;62136;-35.664;-63.766;2023-05-16T08:25:37;22.90;47.20
59975;DHT22;62136;-35.664;-63.766;2023-05-16T08:28:04;22.80;47.80
59975;DHT22;62136;-35.664;-63.766;2023-05-16T08:30:31;22.70;47.50
59975;DHT22;62136;-35.664;-63.766;2023-05-16T08:32:58;22.70;47.60
59975;DHT22;62136;-35.664;-63.766;2023-05-16T08:35:30;22.60;47.70
59975;DHT22;62136;-35.664;-63.766;2023-05-16T08:37:57;22.50;47.90
59975;DHT22;62136;-35.664;-63.766;2023-05-16T08:40:27;22.50;47.90
59975;DHT22;62136;-35.664;-63.766;2023-05-16T08:42:55;22.80;47.50
59975;DHT22;62136;-35.664;-63.766;2023-05-16T08:45:23;23.30;46.70
59975;DHT22;62136;-35.664;-63.766;2023-05-16T08:47:50;23.80;45.70
59975;DHT22;62136;-35.664;-63.766;2023-05-16T08:50:19;23.90;45.30
59975;DHT22;62136;-35.664;-63.766;2023-05-16T08:52:47;23.90;45.30
59975;DHT22;62136;-35.664;-63.766;2023-05-16T08:55:19;23.80;45.40
59975;DHT22;62136;-35.664;-63.766;2023-05-16T08:57:49;23.70;45.50
59975;DHT22;62136;-35.664;-63.766;2023-05-16T09:00:17;23.60;45.90
59975;DHT22;62136;-35.664;-63.766;2023-05-16T09:02:45;23.40;45.90
59975;DHT22;62136;-35.664;-63.766;2023-05-16T09:05:16;23.30;46.20
59975;DHT22;62136;-35.664;-63.766;2023-05-16T09:07:43;23.20;46.50
59975;DHT22;62136;-35.664;-63.766;2023-05-16T09:10:11;23.10;46.60
59975;DHT22;62136;-35.664;-63.766;2023-05-16T09:12:39;23.00;47.00
59975;DHT22;62136;-35.664;-63.766;2023-05-16T09:15:10;22.90;47.20
59975;DHT22;62136;-35.664;-63.766;2023-05-16T09:17:43;22.70;47.40
59975;DHT22;62136;-35.664;-63.766;2023-05-16T09:20:15;22.60;47.60
59975;DHT22;62136;-35.664;-63.766;2023-05-16T09:22:53;22.60;47.80
59975;DHT22;62136;-35.664;-63.766;2023-05-16T09:25:22;22.50;47.90
59975;DHT22;62136;-35.664;-63.766;2023-05-16T09:27:53;22.40;48.10
59975;DHT22;62136;-35.664;-63.766;2023-05-16T09:30:27;22.40;48.00
59975;DHT22;62136;-35.664;-63.766;2023-05-16T09:32:55;22.80;47.70
59975;DHT22;62136;-35.664;-63.766;2023-05-16T09:35:22;23.20;46.80
59975;DHT22;62136;-35.664;-63.766;2023-05-16T09:37:50;23.80;45.80
59975;DHT22;62136;-35.664;-63.766;2023-05-16T09:40:24;23.80;45.40
59975;DHT22;62136;-35.664;-63.766;2023-05-16T09:43:08;23.80;45.40
59975;DHT22;62136;-35.664;-63.766;2023-05-16T09:45:36;23.70;45.50
59975;DHT22;62136;-35.664;-63.766;2023-05-16T09:48:07;23.60;45.80
59975;DHT22;62136;-35.664;-63.766;2023-05-16T09:50:36;23.40;45.90
59975;DHT22;62136;-35.664;-63.766;2023-05-16T09:53:03;23.30;46.20
59975;DHT22;62136;-35.664;-63.766;2023-05-16T09:55:31;23.20;46.60
59975;DHT22;62136;-35.664;-63.766;2023-05-16T09:57:58;23.10;46.70
59975;DHT22;62136;-35.664;-63.766;2023-05-16T10:00:29;22.90;46.90
59975;DHT22;62136;-35.664;-63.766;2023-05-16T10:02:58;22.80;47.20
59975;DHT22;62136;-35.664;-63.766;2023-05-16T10:05:27;22.70;47.50
59975;DHT22;62136;-35.664;-63.766;2023-05-16T10:07:56;22.60;47.70
59975;DHT22;62136;-35.664;-63.766;2023-05-16T10:10:24;22.50;47.90
59975;DHT22;62136;-35.664;-63.766;2023-05-16T10:12:51;22.40;48.10
59975;DHT22;62136;-35.664;-63.766;2023-05-16T10:15:19;22.30;48.10
59975;DHT22;62136;-35.664;-63.766;2023-05-16T10:17:50;22.30;48.30
59975;DHT22;62136;-35.664;-63.766;2023-05-16T10:20:21;22.40;47.90
59975;DHT22;62136;-35.664;-63.766;2023-05-16T10:22:49;22.80;47.30
59975;DHT22;62136;-35.664;-63.766;2023-05-16T10:25:35;23.30;46.40
59975;DHT22;62136;-35.664;-63.766;2023-05-16T10:28:07;23.60;45.40
59975;DHT22;62136;-35.664;-63.766;2023-05-16T10:30:34;23.70;45.30
59975;DHT22;62136;-35.664;-63.766;2023-05-16T10:33:03;23.60;45.30
59975;DHT22;62136;-35.664;-63.766;2023-05-16T10:35:30;23.50;45.50
59975;DHT22;62136;-35.664;-63.766;2023-05-16T10:37:58;23.40;45.80
59975;DHT22;62136;-35.664;-63.766;2023-05-16T10:40:27;23.20;46.00
59975;DHT22;62136;-35.664;-63.766;2023-05-16T10:43:01;23.00;46.20
59975;DHT22;62136;-35.664;-63.766;2023-05-16T10:45:29;22.90;46.60
59975;DHT22;62136;-35.664;-63.766;2023-05-16T10:47:59;22.70;46.90
59975;DHT22;62136;-35.664;-63.766;2023-05-16T10:50:39;22.60;47.10
59975;DHT22;62136;-35.664;-63.766;2023-05-16T10:53:34;22.50;47.20
59975;DHT22;62136;-35.664;-63.766;2023-05-16T10:56:06;22.30;47.40
59975;DHT22;62136;-35.664;-63.766;2023-05-16T11:06:31;23.20;45.40
59975;DHT22;62136;-35.664;-63.766;2023-05-16T11:09:05;23.60;44.50
59975;DHT22;62136;-35.664;-63.766;2023-05-16T11:11:54;23.60;44.40
59975;DHT22;62136;-35.664;-63.766;2023-05-16T11:17:13;23.30;44.70
59975;DHT22;62136;-35.664;-63.766;2023-05-16T11:19:46;23.10;45.10
59975;DHT22;62136;-35.664;-63.766;2023-05-16T11:22:22;23.00;45.40
59975;DHT22;62136;-35.664;-63.766;2023-05-16T11:24:51;22.80;45.80
59975;DHT22;62136;-35.664;-63.766;2023-05-16T11:30:15;22.50;46.80
59975;DHT22;62136;-35.664;-63.766;2023-05-16T11:32:45;22.40;46.60
59975;DHT22;62136;-35.664;-63.766;2023-05-16T11:35:14;22.20;46.90
59975;DHT22;62136;-35.664;-63.766;2023-05-16T11:37:43;22.20;47.00
59975;DHT22;62136;-35.664;-63.766;2023-05-16T11:40:11;22.40;46.80
59975;DHT22;62136;-35.664;-63.766;2023-05-16T11:42:43;22.70;46.20
59975;DHT22;62136;-35.664;-63.766;2023-05-16T11:45:18;23.20;45.50
59975;DHT22;62136;-35.664;-63.766;2023-05-16T11:47:47;23.60;44.70
59975;DHT22;62136;-35.664;-63.766;2023-05-16T11:50:22;23.50;44.60
59975;DHT22;62136;-35.664;-63.766;2023-05-16T11:52:51;23.40;44.70
59975;DHT22;62136;-35.664;-63.766;2023-05-16T11:55:23;23.30;44.90
59975;DHT22;62136;-35.664;-63.766;2023-05-16T11:57:51;23.20;45.20
59975;DHT22;62136;-35.664;-63.766;2023-05-16T12:00:21;23.00;45.50
59975;DHT22;62136;-35.664;-63.766;2023-05-16T12:02:50;22.90;45.90
59975;DHT22;62136;-35.664;-63.766;2023-05-16T12:05:19;22.70;45.90
59975;DHT22;62136;-35.664;-63.766;2023-05-16T12:07:47;22.60;46.30
59975;DHT22;62136;-35.664;-63.766;2023-05-16T12:10:15;22.50;46.40
59975;DHT22;62136;-35.664;-63.766;2023-05-16T12:12:46;22.30;46.60
59975;DHT22;62136;-35.664;-63.766;2023-05-16T12:15:14;22.20;46.80
59975;DHT22;62136;-35.664;-63.766;2023-05-16T12:17:41;22.20;47.10
59975;DHT22;62136;-35.664;-63.766;2023-05-16T12:20:11;22.20;47.30
59975;DHT22;62136;-35.664;-63.766;2023-05-16T12:22:44;22.50;46.80
59975;DHT22;62136;-35.664;-63.766;2023-05-16T12:25:27;23.10;46.00
59975;DHT22;62136;-35.664;-63.766;2023-05-16T12:27:57;23.60;45.30
59975;DHT22;62136;-35.664;-63.766;2023-05-16T12:30:26;23.60;44.70
59975;DHT22;62136;-35.664;-63.766;2023-05-16T12:33:01;23.50;44.70
59975;DHT22;62136;-35.664;-63.766;2023-05-16T12:35:33;23.40;44.90
59975;DHT22;62136;-35.664;-63.766;2023-05-16T12:38:04;23.20;45.10
59975;DHT22;62136;-35.664;-63.766;2023-05-16T12:40:34;23.10;45.50
59975;DHT22;62136;-35.664;-63.766;2023-05-16T12:43:02;22.90;45.70
59975;DHT22;62136;-35.664;-63.766;2023-05-16T12:45:29;22.70;46.00
59975;DHT22;62136;-35.664;-63.766;2023-05-16T12:48:00;22.60;46.70
59975;DHT22;62136;-35.664;-63.766;2023-05-16T12:50:29;22.60;46.90
59975;DHT22;62136;-35.664;-63.766;2023-05-16T12:53:00;22.50;47.70
59975;DHT22;62136;-35.664;-63.766;2023-05-16T12:55:27;22.40;48.60
59975;DHT22;62136;-35.664;-63.766;2023-05-16T12:57:55;22.40;49.00
59975;DHT22;62136;-35.664;-63.766;2023-05-16T13:00:27;22.30;49.50
59975;DHT22;62136;-35.664;-63.766;2023-05-16T13:02:54;22.30;50.10
59975;DHT22;62136;-35.664;-63.766;2023-05-16T13:05:22;22.20;50.90
59975;DHT22;62136;-35.664;-63.766;2023-05-16T13:07:49;22.20;51.20
59975;DHT22;62136;-35.664;-63.766;2023-05-16T13:10:20;22.10;51.90
59975;DHT22;62136;-35.664;-63.766;2023-05-16T13:12:47;22.10;52.00
59975;DHT22;62136;-35.664;-63.766;2023-05-16T13:15:14;22.00;52.50
59975;DHT22;62136;-35.664;-63.766;2023-05-16T13:17:42;22.00;54.10
59975;DHT22;62136;-35.664;-63.766;2023-05-16T13:20:10;22.10;54.30
59975;DHT22;62136;-35.664;-63.766;2023-05-16T13:22:41;22.10;55.00
59975;DHT22;62136;-35.664;-63.766;2023-05-16T13:25:09;22.00;55.00
59975;DHT22;62136;-35.664;-63.766;2023-05-16T13:27:37;22.10;55.10
59975;DHT22;62136;-35.664;-63.766;2023-05-16T13:30:04;22.00;54.40
59975;DHT22;62136;-35.664;-63.766;2023-05-16T13:32:31;22.00;54.00
59975;DHT22;62136;-35.664;-63.766;2023-05-16T13:34:59;22.00;54.80
59975;DHT22;62136;-35.664;-63.766;2023-05-16T13:37:26;22.00;55.10
59975;DHT22;62136;-35.664;-63.766;2023-05-16T13:39:53;22.00;55.10
59975;DHT22;62136;-35.664;-63.766;2023-05-16T13:42:21;22.00;54.70
59975;DHT22;62136;-35.664;-63.766;2023-05-16T13:44:49;22.00;55.70
59975;DHT22;62136;-35.664;-63.766;2023-05-16T13:47:16;22.00;55.50
59975;DHT22;62136;-35.664;-63.766;2023-05-16T13:49:43;22.00;56.20
59975;DHT22;62136;-35.664;-63.766;2023-05-16T13:52:10;22.00;56.40
59975;DHT22;62136;-35.664;-63.766;2023-05-16T13:54:38;22.00;56.00
59975;DHT22;62136;-35.664;-63.766;2023-05-16T13:57:07;22.10;55.40
59975;DHT22;62136;-35.664;-63.766;2023-05-16T13:59:34;22.10;55.90
59975;DHT22;62136;-35.664;-63.766;2023-05-16T14:02:01;22.00;55.50
59975;DHT22;62136;-35.664;-63.766;2023-05-16T14:04:29;22.10;55.40
59975;DHT22;62136;-35.664;-63.766;2023-05-16T14:06:59;22.00;54.80
59975;DHT22;62136;-35.664;-63.766;2023-05-16T14:09:26;22.00;55.00
59975;DHT22;62136;-35.664;-63.766;2023-05-16T14:11:53;22.10;55.00
59975;DHT22;62136;-35.664;-63.766;2023-05-16T14:14:20;22.10;54.80
59975;DHT22;62136;-35.664;-63.766;2023-05-16T14:16:47;22.10;55.60
59975;DHT22;62136;-35.664;-63.766;2023-05-16T14:19:14;22.20;54.40
59975;DHT22;62136;-35.664;-63.766;2023-05-16T14:21:42;22.20;54.00
59975;DHT22;62136;-35.664;-63.766;2023-05-16T14:24:09;22.20;52.70
59975;DHT22;62136;-35.664;-63.766;2023-05-16T14:26:37;22.30;52.40
59975;DHT22;62136;-35.664;-63.766;2023-05-16T14:29:05;22.30;53.00
59975;DHT22;62136;-35.664;-63.766;2023-05-16T14:31:33;22.30;52.30
59975;DHT22;62136;-35.664;-63.766;2023-05-16T14:34:02;22.40;52.30
59975;DHT22;62136;-35.664;-63.766;2023-05-16T14:36:29;22.40;52.60
59975;DHT22;62136;-35.664;-63.766;2023-05-16T14:38:57;22.50;52.70
59975;DHT22;62136;-35.664;-63.766;2023-05-16T14:41:25;22.50;52.50
59975;DHT22;62136;-35.664;-63.766;2023-05-16T14:43:53;22.50;51.90
59975;DHT22;62136;-35.664;-63.766;2023-05-16T14:46:20;22.60;52.00
59975;DHT22;62136;-35.664;-63.766;2023-05-16T14:48:47;22.60;52.00
59975;DHT22;62136;-35.664;-63.766;2023-05-16T14:51:15;22.60;52.10
59975;DHT22;62136;-35.664;-63.766;2023-05-16T14:53:42;22.60;51.90
59975;DHT22;62136;-35.664;-63.766;2023-05-16T14:56:09;22.70;51.90
59975;DHT22;62136;-35.664;-63.766;2023-05-16T14:58:39;22.70;51.60
59975;DHT22;62136;-35.664;-63.766;2023-05-16T15:01:06;22.70;51.50
59975;DHT22;62136;-35.664;-63.766;2023-05-16T15:03:34;22.80;51.60
59975;DHT22;62136;-35.664;-63.766;2023-05-16T15:06:02;22.80;51.90
59975;DHT22;62136;-35.664;-63.766;2023-05-16T15:08:33;23.00;51.80
59975;DHT22;62136;-35.664;-63.766;2023-05-16T15:11:01;23.00;53.30
59975;DHT22;62136;-35.664;-63.766;2023-05-16T15:13:28;23.00;53.20
59975;DHT22;62136;-35.664;-63.766;2023-05-16T15:15:55;23.10;52.20
59975;DHT22;62136;-35.664;-63.766;2023-05-16T15:18:23;23.20;52.10
59975;DHT22;62136;-35.664;-63.766;2023-05-16T15:20:51;23.30;52.60
59975;DHT22;62136;-35.664;-63.766;2023-05-16T15:23:19;23.30;53.10
59975;DHT22;62136;-35.664;-63.766;2023-05-16T15:25:47;23.40;53.30